createdAt,value
2023-05-02T00:00:04.172Z,11.85
2023-05-02T00:02:34.719Z,12.00
2023-05-02T00:05:02.973Z,12.03
2023-05-02T00:07:30.971Z,12.17
2023-05-02T00:09:59.408Z,12.18
2023-05-02T00:12:27.546Z,12.07
2023-05-02T00:14:57.929Z,12.25
2023-05-02T00:17:27.554Z,12.05
2023-05-02T00:19:57.627Z,11.76
2023-05-02T00:22:26.128Z,12.02
2023-05-02T00:24:58.047Z,12.02
2023-05-02T00:27:26.722Z,12.00
2023-05-02T00:29:55.264Z,11.82
2023-05-02T00:32:23.699Z,11.70
2023-05-02T00:34:51.628Z,11.69
2023-05-02T00:37:21.740Z,11.63
2023-05-02T00:39:49.934Z,11.83
2023-05-02T00:42:18.240Z,11.83
2023-05-02T00:44:47.181Z,11.58
2023-05-02T00:47:16.925Z,11.80
2023-05-02T00:49:44.949Z,11.88
2023-05-02T00:52:12.953Z,12.04
2023-05-02T00:54:43.341Z,12.23
2023-05-02T00:57:12.154Z,12.30
2023-05-02T00:59:44.282Z,12.46
2023-05-02T01:02:25.302Z,12.57
2023-05-02T01:05:01.511Z,12.77
2023-05-02T01:07:47.633Z,12.86
2023-05-02T01:10:24.974Z,12.72
2023-05-02T01:13:01.403Z,12.63
2023-05-02T01:15:30.081Z,12.94
2023-05-02T01:18:01.893Z,12.94
2023-05-02T01:20:32.483Z,12.98
2023-05-02T01:23:06.105Z,13.10
2023-05-02T01:25:55.890Z,12.90
2023-05-02T01:28:35.223Z,12.66
2023-05-02T01:31:07.520Z,12.51
2023-05-02T01:33:37.228Z,12.49
2023-05-02T01:36:07.458Z,12.42
2023-05-02T01:38:37.513Z,12.31
2023-05-02T01:41:07.746Z,12.45
2023-05-02T01:43:38.160Z,12.34
2023-05-02T01:46:11.637Z,12.31
2023-05-02T01:48:42.188Z,12.23
2023-05-02T01:51:11.230Z,12.41
2023-05-02T01:53:41.549Z,12.33
2023-05-02T01:56:11.717Z,12.16
2023-05-02T01:58:41.728Z,12.17
2023-05-02T02:01:12.881Z,12.00
2023-05-02T02:03:40.971Z,12.21
2023-05-02T02:06:10.396Z,12.16
2023-05-02T02:08:39.153Z,12.06
2023-05-02T02:11:13.321Z,11.54
2023-05-02T02:13:49.027Z,11.99
2023-05-02T02:16:25.740Z,12.10
2023-05-02T02:18:56.410Z,12.09
2023-05-02T02:21:27.013Z,11.98
2023-05-02T02:23:59.352Z,12.26
2023-05-02T02:26:30.080Z,12.19
2023-05-02T02:28:58.507Z,12.14
2023-05-02T02:31:33.073Z,12.02
2023-05-02T02:34:01.916Z,11.77
2023-05-02T02:36:35.635Z,11.77
2023-05-02T02:39:14.716Z,11.80
2023-05-02T02:41:50.053Z,11.72
2023-05-02T02:44:29.529Z,11.65
2023-05-02T02:47:07.957Z,11.58
2023-05-02T02:49:48.940Z,11.51
2023-05-02T02:52:26.312Z,11.50
2023-05-02T02:55:02.126Z,11.47
2023-05-02T02:57:38.604Z,11.38
2023-05-02T03:00:13.213Z,11.27
2023-05-02T03:02:45.160Z,11.24
2023-05-02T03:05:13.411Z,11.27
2023-05-02T03:07:42.654Z,11.21
2023-05-02T03:10:12.004Z,10.61
2023-05-02T03:12:41.570Z,11.11
2023-05-02T03:15:24.579Z,11.14
2023-05-02T03:17:55.075Z,11.18
2023-05-02T03:20:23.628Z,11.26
2023-05-02T03:22:52.516Z,11.26
2023-05-02T03:25:20.897Z,11.23
2023-05-02T03:27:49.574Z,11.05
2023-05-02T03:30:17.809Z,11.21
2023-05-02T03:32:46.024Z,11.38
2023-05-02T03:35:16.466Z,11.64
2023-05-02T03:37:44.523Z,11.83
2023-05-02T03:40:13.329Z,11.97
2023-05-02T03:42:44.220Z,12.04
2023-05-02T03:45:13.176Z,11.84
2023-05-02T03:47:41.676Z,11.74
2023-05-02T03:50:10.236Z,11.83
2023-05-02T03:52:40.105Z,11.68
2023-05-02T03:55:09.249Z,11.57
2023-05-02T03:57:37.676Z,11.71
2023-05-02T04:00:06.675Z,11.84
2023-05-02T04:02:34.972Z,11.84
2023-05-02T04:05:05.354Z,11.80
2023-05-02T04:07:33.459Z,11.87
2023-05-02T04:10:03.673Z,11.95
2023-05-02T04:12:32.153Z,12.15
2023-05-02T04:15:00.415Z,12.12
2023-05-02T04:17:28.639Z,12.14
2023-05-02T04:19:57.155Z,12.16
2023-05-02T04:22:26.888Z,12.39
2023-05-02T04:24:55.477Z,12.44
2023-05-02T04:27:26.303Z,12.36
2023-05-02T04:29:55.341Z,12.32
2023-05-02T04:32:24.474Z,12.22
2023-05-02T04:34:54.858Z,12.01
2023-05-02T04:37:22.962Z,12.01
2023-05-02T04:39:51.287Z,12.10
2023-05-02T04:42:19.360Z,12.14
2023-05-02T04:44:50.356Z,12.03
2023-05-02T04:47:18.686Z,12.13
2023-05-02T04:49:46.724Z,12.16
2023-05-02T04:52:15.174Z,11.92
2023-05-02T04:54:43.333Z,12.39
2023-05-02T04:57:11.364Z,12.66
2023-05-02T04:59:40.061Z,12.66
2023-05-02T05:02:12.999Z,12.72
2023-05-02T05:04:43.957Z,12.99
2023-05-02T05:07:12.149Z,13.10
2023-05-02T05:09:40.248Z,13.41
2023-05-02T05:12:08.401Z,13.79
2023-05-02T05:14:36.333Z,13.70
2023-05-02T05:17:05.991Z,13.84
2023-05-02T05:19:35.645Z,13.98
2023-05-02T05:22:03.767Z,14.38
2023-05-02T05:24:32.126Z,14.36
2023-05-02T05:27:01.458Z,14.75
2023-05-02T05:29:29.433Z,14.69
2023-05-02T05:31:58.143Z,14.41
2023-05-02T05:34:27.047Z,14.39
2023-05-02T05:36:56.947Z,14.47
2023-05-02T05:39:25.728Z,14.33
2023-05-02T05:41:54.732Z,14.53
2023-05-02T05:44:23.021Z,14.79
2023-05-02T05:46:51.320Z,14.85
2023-05-02T05:49:19.507Z,15.21
2023-05-02T05:51:47.734Z,15.31
2023-05-02T05:54:18.309Z,15.27
2023-05-02T05:56:46.897Z,15.40
2023-05-02T05:59:16.508Z,15.37
2023-05-02T06:01:44.552Z,15.57
2023-05-02T06:04:13.899Z,15.44
2023-05-02T06:06:42.854Z,15.49
2023-05-02T06:09:12.392Z,15.65
2023-05-02T06:11:41.963Z,15.80
2023-05-02T06:14:10.484Z,16.03
2023-05-02T06:16:38.691Z,15.66
2023-05-02T06:19:07.159Z,15.72
2023-05-02T06:21:37.364Z,16.29
2023-05-02T06:24:06.005Z,16.70
2023-05-02T06:26:34.107Z,16.68
2023-05-02T06:29:04.155Z,16.45
2023-05-02T06:31:32.186Z,16.42
2023-05-02T06:34:00.211Z,16.28
2023-05-02T06:36:29.258Z,16.80
2023-05-02T06:38:57.199Z,17.11
2023-05-02T06:41:25.443Z,17.12
2023-05-02T06:43:53.448Z,17.03
2023-05-02T06:46:23.576Z,17.23
2023-05-02T06:48:51.931Z,16.55
2023-05-02T06:51:21.303Z,16.96
2023-05-02T06:53:49.732Z,17.07
2023-05-02T06:56:18.174Z,16.93
2023-05-02T06:58:46.325Z,16.85
2023-05-02T07:01:14.339Z,16.46
2023-05-02T07:03:43.920Z,17.45
2023-05-02T07:06:12.441Z,17.47
2023-05-02T07:08:40.467Z,17.24
2023-05-02T07:11:09.666Z,17.19
2023-05-02T07:13:37.573Z,17.50
2023-05-02T07:16:28.720Z,17.75
2023-05-02T07:18:58.156Z,17.41
2023-05-02T07:21:26.805Z,17.92
2023-05-02T07:23:57.626Z,18.05
2023-05-02T07:26:27.642Z,17.61
2023-05-02T07:28:56.288Z,18.00
2023-05-02T07:31:24.875Z,17.52
2023-05-02T07:33:53.038Z,17.92
2023-05-02T07:36:22.681Z,17.79
2023-05-02T07:38:50.892Z,17.55
2023-05-02T07:41:19.381Z,18.17
2023-05-02T07:43:47.712Z,17.82
2023-05-02T07:46:15.703Z,17.90
2023-05-02T07:48:44.618Z,17.89
2023-05-02T07:51:13.626Z,18.13
2023-05-02T07:53:43.119Z,18.27
2023-05-02T07:56:13.307Z,18.22
2023-05-02T07:58:41.369Z,18.13
2023-05-02T08:01:09.582Z,18.12
2023-05-02T08:03:37.831Z,17.64
2023-05-02T08:06:06.225Z,17.80
2023-05-02T08:08:35.740Z,17.87
2023-05-02T08:11:05.906Z,17.98
2023-05-02T08:13:34.054Z,17.73
2023-05-02T08:16:03.493Z,17.89
2023-05-02T08:18:34.177Z,17.87
2023-05-02T08:21:02.088Z,17.91
2023-05-02T08:23:30.239Z,17.87
2023-05-02T08:25:58.503Z,18.14
2023-05-02T08:28:28.720Z,18.06
2023-05-02T08:30:57.100Z,18.04
2023-05-02T08:33:25.328Z,18.09
2023-05-02T08:35:53.496Z,18.77
2023-05-02T08:38:21.442Z,18.98
2023-05-02T08:40:49.876Z,18.90
2023-05-02T08:43:18.264Z,19.38
2023-05-02T08:45:49.106Z,19.52
2023-05-02T08:48:19.408Z,19.42
2023-05-02T08:50:49.857Z,19.52
2023-05-02T08:53:19.526Z,19.79
2023-05-02T08:55:50.252Z,19.90
2023-05-02T08:58:18.183Z,19.85
2023-05-02T09:00:51.620Z,19.74
2023-05-02T09:03:28.198Z,19.70
2023-05-02T09:06:09.552Z,20.13
2023-05-02T09:08:38.766Z,20.22
2023-05-02T09:11:10.673Z,20.24
2023-05-02T09:13:42.929Z,20.52
2023-05-02T09:16:13.905Z,21.16
2023-05-02T09:18:44.172Z,21.23
2023-05-02T09:21:13.961Z,21.20
2023-05-02T09:23:43.737Z,20.81
2023-05-02T09:26:16.256Z,21.39
2023-05-02T09:28:48.179Z,21.26
2023-05-02T09:31:37.502Z,21.03
2023-05-02T09:34:11.207Z,21.20
2023-05-02T09:36:43.745Z,21.31
2023-05-02T09:39:13.881Z,21.46
2023-05-02T09:41:42.932Z,21.51
2023-05-02T09:44:12.809Z,20.97
2023-05-02T09:46:47.359Z,21.02
2023-05-02T09:49:19.078Z,21.00
2023-05-02T09:51:48.800Z,20.28
2023-05-02T09:54:36.146Z,20.70
2023-05-02T09:57:07.496Z,20.54
2023-05-02T09:59:35.714Z,20.24
2023-05-02T10:02:07.765Z,19.85
2023-05-02T10:04:37.320Z,19.98
2023-05-02T10:07:07.025Z,20.15
2023-05-02T10:09:37.509Z,20.08
2023-05-02T10:12:08.358Z,19.97
2023-05-02T10:14:42.765Z,20.40
2023-05-02T10:17:15.268Z,20.45
2023-05-02T10:19:53.179Z,20.30
2023-05-02T10:22:22.224Z,20.47
2023-05-02T10:24:51.819Z,20.67
2023-05-02T10:27:20.948Z,21.10
2023-05-02T10:29:50.169Z,21.50
2023-05-02T10:32:20.118Z,21.65
2023-05-02T10:34:50.663Z,21.27
2023-05-02T10:37:20.762Z,21.70
2023-05-02T10:39:48.973Z,21.32
2023-05-02T10:42:18.674Z,21.61
2023-05-02T10:44:49.877Z,21.60
2023-05-02T10:47:23.610Z,21.58
2023-05-02T10:49:53.558Z,21.13
2023-05-02T10:52:29.283Z,21.39
2023-05-02T10:55:24.416Z,20.94
2023-05-02T10:58:22.578Z,20.95
2023-05-02T11:00:54.211Z,20.99
2023-05-02T11:03:58.690Z,21.57
2023-05-02T11:06:28.425Z,21.48
2023-05-02T11:09:35.381Z,21.48
2023-05-02T11:12:04.950Z,21.63
2023-05-02T11:14:50.254Z,21.40
2023-05-02T11:17:19.303Z,20.98
2023-05-02T11:20:29.767Z,21.38
2023-05-02T11:23:27.134Z,21.39
2023-05-02T11:25:57.481Z,21.47
2023-05-02T11:28:42.805Z,21.81
2023-05-02T11:31:32.860Z,22.20
2023-05-02T11:34:02.156Z,22.09
2023-05-02T11:36:30.978Z,22.14
2023-05-02T11:39:01.329Z,21.80
2023-05-02T11:41:40.887Z,21.25
2023-05-02T11:44:09.085Z,21.88
2023-05-02T11:46:38.497Z,21.75
2023-05-02T11:49:09.789Z,21.74
2023-05-02T11:51:39.203Z,21.91
2023-05-02T11:54:09.221Z,21.92
2023-05-02T11:56:37.331Z,21.68
2023-05-02T11:59:06.645Z,22.08
2023-05-02T12:01:35.381Z,22.28
2023-05-02T12:04:05.709Z,22.20
2023-05-02T12:06:35.473Z,22.24
2023-05-02T12:09:17.295Z,22.34
2023-05-02T12:11:46.416Z,22.53
2023-05-02T12:14:14.692Z,22.42
2023-05-02T12:16:43.577Z,21.86
2023-05-02T12:19:16.620Z,21.88
2023-05-02T12:21:44.733Z,21.55
2023-05-02T12:24:16.628Z,21.87
2023-05-02T12:26:46.437Z,21.81
2023-05-02T12:29:17.211Z,21.65
2023-05-02T12:31:52.826Z,21.54
2023-05-02T12:34:35.306Z,21.59
2023-05-02T12:37:04.704Z,21.01
2023-05-02T12:39:38.438Z,21.63
2023-05-02T12:42:13.724Z,21.63
2023-05-02T12:44:43.693Z,21.85
2023-05-02T12:47:13.279Z,21.18
2023-05-02T12:49:53.070Z,22.38
2023-05-02T12:52:24.548Z,22.60
2023-05-02T12:54:54.783Z,22.56
2023-05-02T12:57:25.370Z,22.34
2023-05-02T12:59:54.816Z,22.27
2023-05-02T13:02:24.065Z,22.15
2023-05-02T13:04:52.504Z,21.66
2023-05-02T13:07:21.055Z,21.62
2023-05-02T13:09:50.776Z,22.10
2023-05-02T13:12:20.145Z,22.15
2023-05-02T13:14:48.614Z,22.05
2023-05-02T13:17:17.063Z,22.32
2023-05-02T13:19:57.780Z,21.91
2023-05-02T13:22:29.850Z,21.75
2023-05-02T13:24:59.747Z,21.81
2023-05-02T13:27:29.185Z,22.11
2023-05-02T13:29:57.527Z,21.84
2023-05-02T13:32:25.933Z,21.91
2023-05-02T13:34:54.165Z,22.38
2023-05-02T13:37:22.387Z,22.40
2023-05-02T13:39:50.270Z,22.12
2023-05-02T13:42:18.691Z,22.62
2023-05-02T13:44:48.620Z,22.61
2023-05-02T13:47:16.616Z,22.37
2023-05-02T13:49:45.321Z,22.27
2023-05-02T13:52:13.852Z,22.72
2023-05-02T13:54:42.069Z,22.47
2023-05-02T13:57:10.970Z,22.20
2023-05-02T13:59:39.009Z,22.37
2023-05-02T14:02:08.908Z,21.73
2023-05-02T14:04:37.420Z,22.54
2023-05-02T14:07:05.579Z,22.22
2023-05-02T14:09:35.293Z,22.47
2023-05-02T14:12:03.286Z,22.46
2023-05-02T14:14:31.850Z,22.56
2023-05-02T14:17:00.225Z,22.83
2023-05-02T14:19:29.681Z,22.61
2023-05-02T14:21:57.879Z,22.75
2023-05-02T14:24:26.092Z,22.52
2023-05-02T14:26:54.050Z,22.45
2023-05-02T14:29:22.147Z,22.55
2023-05-02T14:31:51.067Z,22.69
2023-05-02T14:34:19.665Z,22.54
2023-05-02T14:36:49.242Z,22.79
2023-05-02T14:39:17.425Z,22.37
2023-05-02T14:41:46.691Z,22.43
2023-05-02T14:44:15.726Z,22.53
2023-05-02T14:46:43.966Z,22.61
2023-05-02T14:49:12.250Z,22.22
2023-05-02T14:51:40.359Z,22.08
2023-05-02T14:54:09.806Z,22.42
2023-05-02T14:56:38.235Z,22.62
2023-05-02T14:59:06.452Z,22.45
2023-05-02T15:01:34.735Z,22.41
2023-05-02T15:04:06.619Z,22.56
2023-05-02T15:06:36.736Z,22.24
2023-05-02T15:09:05.369Z,22.09
2023-05-02T15:11:37.128Z,21.87
2023-05-02T15:14:05.559Z,21.37
2023-05-02T15:16:33.764Z,21.27
2023-05-02T15:19:01.722Z,21.48
2023-05-02T15:21:31.297Z,21.31
2023-05-02T15:23:59.634Z,21.34
2023-05-02T15:26:27.678Z,21.25
2023-05-02T15:28:57.725Z,21.68
2023-05-02T15:31:26.391Z,21.66
2023-05-02T15:33:54.429Z,21.60
2023-05-02T15:36:22.626Z,21.72
2023-05-02T15:38:50.864Z,21.85
2023-05-02T15:41:18.943Z,21.86
2023-05-02T15:43:47.191Z,21.79
2023-05-02T15:46:17.276Z,21.83
2023-05-02T15:48:46.976Z,21.54
2023-05-02T15:51:15.290Z,21.50
2023-05-02T15:53:45.144Z,21.81
2023-05-02T15:56:13.789Z,21.64
2023-05-02T15:58:42.011Z,21.66
2023-05-02T16:01:10.335Z,21.49
2023-05-02T16:03:40.397Z,21.28
2023-05-02T16:06:08.972Z,20.96
2023-05-02T16:08:37.326Z,20.96
2023-05-02T16:11:05.724Z,20.82
2023-05-02T16:13:33.999Z,20.73
2023-05-02T16:16:02.023Z,20.78
2023-05-02T16:18:30.095Z,20.84
2023-05-02T16:21:00.948Z,20.87
2023-05-02T16:23:30.660Z,20.87
2023-05-02T16:25:59.581Z,20.46
2023-05-02T16:28:27.521Z,20.34
2023-05-02T16:30:56.343Z,20.13
2023-05-02T16:33:25.354Z,20.23
2023-05-02T16:36:03.138Z,20.05
2023-05-02T16:38:31.810Z,19.61
2023-05-02T16:40:59.801Z,19.19
2023-05-02T16:43:27.957Z,19.82
2023-05-02T16:46:01.606Z,19.70
2023-05-02T16:48:30.952Z,19.53
2023-05-02T16:51:01.666Z,19.58
2023-05-02T16:53:33.120Z,19.57
2023-05-02T16:56:01.118Z,19.38
2023-05-02T16:58:30.024Z,19.42
2023-05-02T17:01:02.884Z,19.61
2023-05-02T17:03:30.904Z,19.68
2023-05-02T17:06:04.275Z,19.50
2023-05-02T17:08:34.284Z,19.42
2023-05-02T17:11:02.686Z,19.09
2023-05-02T17:13:31.807Z,19.34
2023-05-02T17:16:01.049Z,19.25
2023-05-02T17:18:29.567Z,19.13
2023-05-02T17:20:57.700Z,18.49
2023-05-02T17:23:30.616Z,18.85
2023-05-02T17:26:00.320Z,18.42
2023-05-02T17:28:28.329Z,18.63
2023-05-02T17:30:59.491Z,18.42
2023-05-02T17:33:30.265Z,18.46
2023-05-02T17:35:59.101Z,18.48
2023-05-02T17:38:27.790Z,18.47
2023-05-02T17:40:55.795Z,18.52
2023-05-02T17:43:25.604Z,18.56
2023-05-02T17:45:53.762Z,18.33
2023-05-02T17:48:21.846Z,18.14
2023-05-02T17:50:51.153Z,18.17
2023-05-02T17:53:19.212Z,17.98
2023-05-02T17:55:47.336Z,18.24
2023-05-02T17:58:15.999Z,18.09
2023-05-02T18:00:45.756Z,18.00
2023-05-02T18:03:13.819Z,18.29
2023-05-02T18:05:44.144Z,18.47
2023-05-02T18:08:12.133Z,18.31
2023-05-02T18:10:41.626Z,18.26
2023-05-02T18:13:10.210Z,18.18
2023-05-02T18:15:38.380Z,18.31
2023-05-02T18:18:08.226Z,18.56
2023-05-02T18:20:40.729Z,18.42
2023-05-02T18:23:09.114Z,18.49
2023-05-02T18:25:37.394Z,18.69
2023-05-02T18:28:06.806Z,18.74
2023-05-02T18:30:38.703Z,18.76
2023-05-02T18:33:09.665Z,18.80
2023-05-02T18:35:37.740Z,18.79
2023-05-02T18:38:07.867Z,18.77
2023-05-02T18:40:36.185Z,18.77
2023-05-02T18:43:04.169Z,17.92
2023-05-02T18:45:37.293Z,18.64
2023-05-02T18:48:05.598Z,18.63
2023-05-02T18:50:35.041Z,18.56
2023-05-02T18:53:03.222Z,18.52
2023-05-02T18:55:33.523Z,18.57
2023-05-02T18:58:01.645Z,18.61
2023-05-02T19:00:31.448Z,18.64
2023-05-02T19:02:59.910Z,18.44
2023-05-02T19:05:29.135Z,18.60
2023-05-02T19:07:58.918Z,18.51
2023-05-02T19:10:27.449Z,18.39
2023-05-02T19:12:55.511Z,18.70
2023-05-02T19:15:26.678Z,18.55
2023-05-02T19:17:55.106Z,18.49
2023-05-02T19:20:23.778Z,18.53
2023-05-02T19:23:02.910Z,18.52
2023-05-02T19:25:42.828Z,18.66
2023-05-02T19:28:12.359Z,18.65
2023-05-02T19:30:46.610Z,18.65
2023-05-02T19:33:15.186Z,18.47
2023-05-02T19:35:43.263Z,18.53
2023-05-02T19:38:11.288Z,18.06
2023-05-02T19:40:40.143Z,18.05
2023-05-02T19:43:12.920Z,17.83
2023-05-02T19:45:41.012Z,17.59
2023-05-02T19:48:08.902Z,17.23
2023-05-02T19:50:37.921Z,16.85
2023-05-02T19:53:06.044Z,16.65
2023-05-02T19:55:34.051Z,16.45
2023-05-02T19:58:03.390Z,16.34
2023-05-02T20:00:33.099Z,16.10
2023-05-02T20:03:01.896Z,15.99
2023-05-02T20:05:30.785Z,15.90
2023-05-02T20:07:59.083Z,15.84
2023-05-02T20:10:27.064Z,15.79
2023-05-02T20:12:55.358Z,15.70
2023-05-02T20:15:23.672Z,15.66
2023-05-02T20:17:53.047Z,15.58
2023-05-02T20:20:21.759Z,15.58
2023-05-02T20:22:49.976Z,15.34
2023-05-02T20:25:18.931Z,15.11
2023-05-02T20:27:47.196Z,15.19
2023-05-02T20:30:17.374Z,15.00
2023-05-02T20:32:45.742Z,14.98
2023-05-02T20:35:16.082Z,14.97
2023-05-02T20:37:44.355Z,14.95
2023-05-02T20:40:13.464Z,15.09
2023-05-02T20:42:42.623Z,15.14
2023-05-02T20:45:14.247Z,15.12
2023-05-02T20:47:44.252Z,15.09
2023-05-02T20:50:12.601Z,15.03
2023-05-02T20:52:44.503Z,15.15
2023-05-02T20:55:12.676Z,15.17
2023-05-02T20:57:40.797Z,15.09
2023-05-02T21:00:11.544Z,15.12
2023-05-02T21:02:39.716Z,15.16
2023-05-02T21:05:08.289Z,13.94
2023-05-02T21:07:36.518Z,14.93
2023-05-02T21:10:07.341Z,14.92
2023-05-02T21:12:38.932Z,14.90
2023-05-02T21:15:09.506Z,14.86
2023-05-02T21:17:40.900Z,14.79
2023-05-02T21:20:11.228Z,14.68
2023-05-02T21:22:39.466Z,14.58
2023-05-02T21:25:10.613Z,14.47
2023-05-02T21:27:38.845Z,14.43
2023-05-02T21:30:09.641Z,14.37
2023-05-02T21:32:37.775Z,13.51
2023-05-02T21:35:06.520Z,14.20
2023-05-02T21:37:34.867Z,14.17
2023-05-02T21:40:04.362Z,14.37
2023-05-02T21:42:34.400Z,14.41
2023-05-02T21:45:02.570Z,14.37
2023-05-02T21:47:30.610Z,14.16
2023-05-02T21:49:58.830Z,14.38
2023-05-02T21:52:27.475Z,14.48
2023-05-02T21:54:55.686Z,14.44
2023-05-02T21:57:23.647Z,14.52
2023-05-02T21:59:53.254Z,14.50
2023-05-02T22:02:21.316Z,14.59
2023-05-02T22:04:51.058Z,14.73
2023-05-02T22:07:19.041Z,14.67
2023-05-02T22:09:47.397Z,14.57
2023-05-02T22:12:15.509Z,14.48
2023-05-02T22:14:45.913Z,14.41
2023-05-02T22:17:18.787Z,14.23
2023-05-02T22:19:49.638Z,14.22
2023-05-02T22:22:18.123Z,14.11
2023-05-02T22:24:46.435Z,13.84
2023-05-02T22:27:14.459Z,13.92
2023-05-02T22:29:43.393Z,13.87
2023-05-02T22:32:13.768Z,13.80
2023-05-02T22:34:43.420Z,13.76
2023-05-02T22:37:12.460Z,13.69
2023-05-02T22:39:40.764Z,13.67
2023-05-02T22:42:09.358Z,13.68
2023-05-02T22:44:50.890Z,13.66
2023-05-02T22:47:23.646Z,13.69
2023-05-02T22:49:54.520Z,13.68
2023-05-02T22:52:22.671Z,13.70
2023-05-02T22:54:50.661Z,13.70
2023-05-02T22:57:20.081Z,13.60
2023-05-02T22:59:48.274Z,13.63
2023-05-02T23:02:17.613Z,13.61
2023-05-02T23:04:45.678Z,13.64
2023-05-02T23:07:15.206Z,13.59
2023-05-02T23:09:43.239Z,13.44
2023-05-02T23:12:11.665Z,13.54
2023-05-02T23:14:42.651Z,13.31
2023-05-02T23:17:11.866Z,13.42
2023-05-02T23:19:40.463Z,13.32
2023-05-02T23:22:08.431Z,13.24
2023-05-02T23:24:37.929Z,13.27
2023-05-02T23:27:08.290Z,13.20
2023-05-02T23:29:36.941Z,13.29
2023-05-02T23:32:08.198Z,13.22
2023-05-02T23:34:37.495Z,13.24
2023-05-02T23:37:07.006Z,13.21
2023-05-02T23:39:35.671Z,12.85
2023-05-02T23:42:07.052Z,13.07
2023-05-02T23:44:35.181Z,13.09
2023-05-02T23:47:03.219Z,13.05
2023-05-02T23:49:31.290Z,12.97
2023-05-02T23:51:59.699Z,12.97
2023-05-02T23:54:31.321Z,12.87
2023-05-02T23:57:03.510Z,12.91
2023-05-02T23:59:33.509Z,13.05
